Time;durP1;ratioP1;P1;durP2;ratioP2;P2;SDS_P1;SDS_P2;PMS_P1;PMS_P2;Temp;Humidity;BMP_temperature;BMP_pressure;BME280_temperature;BME280_humidity;BME280_pressure;Samples;Min_cycle;Max_cycle;Signal;HPM_P1;HPM_P2
2023/07/29 00:02:00;;;;;;;3.43;3.23;;;16.90;99.90;;;;;;5034767;28;20686;-72
2023/07/29 00:04:25;;;;;;;4.30;3.90;;;16.90;99.90;;;;;;5032916;28;20195;-75
2023/07/29 00:06:51;;;;;;;4.27;3.97;;;16.90;99.90;;;;;;5032006;28;20200;-73
2023/07/29 00:09:17;;;;;;;4.20;3.80;;;16.90;99.90;;;;;;5034371;28;20265;-72
2023/07/29 00:11:42;;;;;;;5.07;4.57;;;16.80;99.90;;;;;;5034660;28;20183;-69
2023/07/29 00:14:08;;;;;;;4.73;4.23;;;16.80;99.90;;;;;;5032611;28;20178;-69
2023/07/29 00:16:34;;;;;;;4.97;4.57;;;16.80;99.90;;;;;;5033339;28;20195;-69
2023/07/29 00:18:59;;;;;;;3.83;3.43;;;16.80;99.90;;;;;;5034129;28;20262;-76
2023/07/29 00:21:25;;;;;;;5.83;4.67;;;16.80;99.90;;;;;;5034146;28;20171;-72
2023/07/29 00:23:51;;;;;;;29.37;5.63;;;16.80;99.90;;;;;;5034408;28;20201;-70
2023/07/29 00:26:17;;;;;;;5.60;4.23;;;16.80;99.90;;;;;;5033273;28;20241;-70
2023/07/29 00:28:43;;;;;;;4.87;3.83;;;16.80;99.90;;;;;;5019235;28;20462;-75
2023/07/29 00:31:08;;;;;;;5.00;3.83;;;16.70;99.90;;;;;;5014505;28;20395;-76
2023/07/29 00:33:34;;;;;;;4.90;4.40;;;16.70;99.90;;;;;;5014530;28;20252;-70
2023/07/29 00:36:03;;;;;;;4.23;3.83;;;16.70;99.90;;;;;;5017430;28;20178;-74
2023/07/29 00:38:28;;;;;;;4.80;4.17;;;16.70;99.90;;;;;;5033782;28;20183;-71
2023/07/29 00:40:55;;;;;;;6.73;3.80;;;16.80;99.90;;;;;;5031751;28;20433;-75
2023/07/29 00:43:21;;;;;;;5.13;4.03;;;16.80;99.90;;;;;;5033813;28;20226;-69
2023/07/29 00:45:47;;;;;;;8.73;4.77;;;16.80;99.90;;;;;;5048289;28;20403;-74
2023/07/29 00:48:13;;;;;;;6.70;4.83;;;16.80;99.90;;;;;;5032087;28;20191;-73
2023/07/29 00:50:39;;;;;;;9.50;5.60;;;16.80;99.90;;;;;;5033600;28;20819;-70
2023/07/29 00:53:05;;;;;;;6.63;5.77;;;16.90;99.90;;;;;;5033655;28;20489;-74
2023/07/29 00:55:31;;;;;;;7.10;6.50;;;17.00;99.90;;;;;;5031951;28;20430;-74
2023/07/29 00:57:57;;;;;;;8.77;6.10;;;17.00;99.90;;;;;;5033586;28;20568;-71
2023/07/29 01:00:24;;;;;;;6.00;5.40;;;17.10;99.90;;;;;;5033663;28;20390;-76
2023/07/29 01:02:50;;;;;;;5.70;5.20;;;17.10;99.90;;;;;;5033556;28;20160;-75
2023/07/29 01:05:17;;;;;;;6.33;4.53;;;17.10;99.90;;;;;;5032386;28;20512;-70
2023/07/29 01:07:55;;;;;;;5.57;4.60;;;17.10;99.90;;;;;;5033389;28;20205;-72
2023/07/29 01:10:33;;;;;;;6.60;5.80;;;17.10;99.90;;;;;;5033399;28;20436;-72
2023/07/29 01:13:16;;;;;;;6.50;4.97;;;17.20;99.90;;;;;;5031966;28;20430;-70
2023/07/29 01:15:58;;;;;;;5.80;5.20;;;17.20;99.90;;;;;;5031795;28;20517;-74
2023/07/29 01:18:30;;;;;;;5.63;5.03;;;17.20;99.90;;;;;;5032986;28;20464;-71
2023/07/29 01:21:02;;;;;;;8.20;5.30;;;17.20;99.90;;;;;;5033284;28;20938;-73
2023/07/29 01:23:32;;;;;;;4.87;4.47;;;17.20;99.90;;;;;;5033309;28;20515;-70
2023/07/29 01:25:57;;;;;;;6.13;5.60;;;17.20;99.90;;;;;;5031234;28;20410;-74
2023/07/29 01:28:24;;;;;;;5.60;5.00;;;17.20;99.90;;;;;;5013506;28;20415;-74
2023/07/29 01:30:56;;;;;;;6.03;4.83;;;17.20;99.90;;;;;;5013042;28;20179;-70
2023/07/29 01:33:34;;;;;;;4.67;4.23;;;17.10;99.90;;;;;;5013191;28;20395;-70
2023/07/29 01:36:11;;;;;;;8.10;5.20;;;17.10;99.90;;;;;;5024915;28;20432;-70
2023/07/29 01:38:38;;;;;;;5.50;4.40;;;17.10;99.90;;;;;;5032914;28;20425;-75
2023/07/29 01:41:07;;;;;;;5.30;4.60;;;17.10;99.90;;;;;;5030291;28;20505;-72
2023/07/29 01:43:33;;;;;;;5.87;4.57;;;17.00;99.90;;;;;;5013138;28;20450;-71
2023/07/29 01:46:00;;;;;;;4.67;4.27;;;17.00;99.90;;;;;;5012252;28;20399;-70
2023/07/29 01:48:28;;;;;;;6.63;5.50;;;17.00;99.90;;;;;;5012786;28;20416;-75
2023/07/29 01:50:54;;;;;;;7.77;6.00;;;17.00;99.90;;;;;;5012868;28;20434;-74
2023/07/29 01:53:20;;;;;;;7.13;5.83;;;17.00;99.90;;;;;;5012127;28;20407;-70
2023/07/29 01:55:45;;;;;;;11.53;6.60;;;17.00;99.90;;;;;;5017194;28;20544;-71
2023/07/29 01:58:11;;;;;;;6.40;5.80;;;17.00;99.90;;;;;;5023078;28;20200;-71
2023/07/29 02:00:37;;;;;;;7.63;5.87;;;17.00;99.90;;;;;;5015356;28;20176;-74
2023/07/29 02:03:03;;;;;;;8.07;6.57;;;17.10;99.90;;;;;;5012693;28;20403;-75
2023/07/29 02:05:29;;;;;;;8.67;5.70;;;17.00;99.90;;;;;;5011875;28;20200;-74
2023/07/29 02:07:54;;;;;;;10.97;6.00;;;17.00;99.90;;;;;;5022994;28;20229;-69
2023/07/29 02:10:20;;;;;;;11.57;5.67;;;17.00;99.90;;;;;;5032613;28;20252;-73
2023/07/29 02:12:46;;;;;;;6.17;5.53;;;17.00;99.90;;;;;;5032712;28;20584;-72
2023/07/29 02:15:11;;;;;;;5.77;4.80;;;17.10;99.90;;;;;;5019327;28;20180;-69
2023/07/29 02:17:37;;;;;;;7.03;5.60;;;17.10;99.90;;;;;;5022523;28;20286;-76
2023/07/29 02:20:04;;;;;;;5.77;4.87;;;17.10;99.90;;;;;;5032544;28;20248;-72
2023/07/29 02:22:30;;;;;;;6.93;6.20;;;17.10;99.90;;;;;;5032422;28;20620;-74
2023/07/29 02:24:55;;;;;;;6.27;5.70;;;17.00;99.90;;;;;;5031960;28;20464;-70
2023/07/29 02:27:21;;;;;;;10.80;6.90;;;17.00;99.90;;;;;;5031900;28;20421;-75
2023/07/29 02:29:47;;;;;;;7.60;5.57;;;17.00;99.90;;;;;;5022589;28;20199;-74
2023/07/29 02:32:13;;;;;;;13.33;6.90;;;17.00;99.90;;;;;;5018010;28;20219;-70
2023/07/29 02:34:39;;;;;;;6.83;6.00;;;17.00;99.90;;;;;;5016527;28;20172;-70
2023/07/29 02:37:04;;;;;;;8.20;5.60;;;17.00;99.90;;;;;;5014294;28;20223;-74
2023/07/29 02:39:30;;;;;;;6.80;5.83;;;17.00;99.90;;;;;;5016294;28;20180;-71
2023/07/29 02:41:58;;;;;;;8.67;6.63;;;17.10;99.90;;;;;;5021748;28;20402;-73
2023/07/29 02:44:24;;;;;;;7.30;6.60;;;17.00;99.90;;;;;;5035254;28;20545;-74
2023/07/29 02:46:52;;;;;;;9.97;7.40;;;17.10;99.90;;;;;;5035327;28;20458;-74
2023/07/29 02:49:17;;;;;;;6.30;5.50;;;17.10;99.90;;;;;;5022862;28;20445;-75
2023/07/29 02:51:43;;;;;;;12.50;5.27;;;17.10;99.90;;;;;;5016347;28;20757;-74
2023/07/29 02:54:09;;;;;;;5.53;5.03;;;16.90;99.90;;;;;;5015172;28;20638;-70
2023/07/29 02:56:36;;;;;;;7.83;6.40;;;16.80;99.90;;;;;;5015149;28;20211;-75
2023/07/29 02:59:01;;;;;;;8.10;6.73;;;16.90;99.90;;;;;;5014533;28;20411;-73
2023/07/29 03:01:27;;;;;;;9.20;5.90;;;17.00;99.90;;;;;;5014840;28;20231;-69
2023/07/29 03:03:53;;;;;;;7.47;6.13;;;17.00;99.90;;;;;;5018901;28;20286;-70
2023/07/29 03:06:19;;;;;;;7.20;5.63;;;17.10;99.90;;;;;;5035045;28;20168;-70
2023/07/29 03:08:45;;;;;;;9.23;5.87;;;17.00;99.90;;;;;;5034790;28;20176;-74
2023/07/29 03:11:13;;;;;;;18.23;7.33;;;17.10;99.90;;;;;;5034426;28;20436;-70
2023/07/29 03:13:39;;;;;;;10.17;7.23;;;17.10;99.90;;;;;;5035335;28;20183;-71
2023/07/29 03:16:12;;;;;;;10.60;7.13;;;17.10;99.90;;;;;;5034806;28;20406;-72
2023/07/29 03:18:39;;;;;;;12.37;7.30;;;17.10;99.90;;;;;;5032723;28;20214;-70
2023/07/29 03:21:05;;;;;;;9.83;7.13;;;17.20;99.90;;;;;;5025109;28;20435;-75
2023/07/29 03:23:32;;;;;;;9.50;6.70;;;17.20;99.90;;;;;;5014613;28;20520;-73
2023/07/29 03:25:58;;;;;;;8.70;5.87;;;17.20;99.90;;;;;;5014442;28;20180;-70
2023/07/29 03:28:27;;;;;;;7.50;5.50;;;17.10;99.90;;;;;;5015361;28;20439;-70
2023/07/29 03:30:53;;;;;;;10.23;6.80;;;17.10;99.90;;;;;;5015281;28;20414;-70
2023/07/29 03:33:19;;;;;;;12.07;7.27;;;17.20;99.90;;;;;;5022197;28;20418;-75
2023/07/29 03:35:45;;;;;;;11.17;7.30;;;17.20;99.90;;;;;;5033334;28;20865;-71
2023/07/29 03:38:11;;;;;;;8.73;6.27;;;17.20;99.90;;;;;;5035149;28;20540;-70
2023/07/29 03:40:38;;;;;;;9.13;7.10;;;17.20;99.90;;;;;;5034938;28;20413;-74
2023/07/29 03:43:04;;;;;;;10.13;7.30;;;17.20;99.90;;;;;;5035267;28;20394;-75
2023/07/29 03:45:30;;;;;;;9.53;6.30;;;17.20;99.90;;;;;;5034178;28;20468;-71
2023/07/29 03:47:56;;;;;;;7.97;5.40;;;17.20;99.90;;;;;;5023208;28;20570;-75
2023/07/29 03:50:22;;;;;;;13.13;5.63;;;17.20;99.90;;;;;;5029211;28;20461;-71
2023/07/29 03:52:47;;;;;;;8.37;6.57;;;17.20;99.90;;;;;;5024327;28;20192;-70
2023/07/29 03:55:13;;;;;;;7.23;6.17;;;17.20;99.90;;;;;;5014208;28;20260;-73
2023/07/29 03:57:39;;;;;;;8.77;5.93;;;17.20;99.90;;;;;;5014874;28;20219;-75
2023/07/29 04:00:05;;;;;;;13.10;9.07;;;17.20;99.90;;;;;;5014877;28;20185;-69
2023/07/29 04:02:31;;;;;;;11.93;8.33;;;17.20;99.90;;;;;;5018171;28;20221;-70
2023/07/29 04:04:57;;;;;;;19.30;9.43;;;17.20;99.90;;;;;;5034562;28;20454;-70
2023/07/29 04:07:23;;;;;;;15.80;8.00;;;17.30;99.90;;;;;;5033618;28;20187;-72
2023/07/29 04:09:49;;;;;;;12.93;8.83;;;17.30;99.90;;;;;;5026402;28;20178;-70
2023/07/29 04:12:15;;;;;;;12.40;7.30;;;17.30;99.90;;;;;;5014879;28;20176;-72
2023/07/29 04:14:41;;;;;;;11.90;8.43;;;17.30;99.90;;;;;;5020616;28;20544;-73
2023/07/29 04:17:07;;;;;;;13.00;8.47;;;17.30;99.90;;;;;;5033348;28;20429;-70
2023/07/29 04:19:33;;;;;;;11.77;8.57;;;17.30;1.00;;;;;;5033238;28;20225;-70
2023/07/29 04:21:59;;;;;;;14.77;9.33;;;17.30;1.00;;;;;;5034360;28;20501;-71
2023/07/29 04:24:25;;;;;;;13.83;10.40;;;17.30;1.00;;;;;;5022537;28;20191;-70
2023/07/29 04:26:50;;;;;;;12.50;9.50;;;17.40;1.00;;;;;;5031886;28;20533;-73
2023/07/29 04:29:17;;;;;;;11.73;8.07;;;17.30;1.00;;;;;;5034117;28;20166;-69
2023/07/29 04:31:42;;;;;;;16.10;9.50;;;17.30;1.00;;;;;;5034507;28;20524;-69
2023/07/29 04:34:08;;;;;;;12.60;8.27;;;17.30;1.00;;;;;;5033899;28;20414;-68
2023/07/29 04:36:34;;;;;;;18.97;9.63;;;17.30;1.00;;;;;;5033112;28;20587;-67
2023/07/29 04:39:00;;;;;;;26.43;10.43;;;17.20;1.00;;;;;;5033415;28;20495;-69
2023/07/29 04:41:26;;;;;;;16.80;9.17;;;17.20;1.00;;;;;;5032790;28;20939;-71
2023/07/29 04:43:52;;;;;;;15.70;9.97;;;17.20;1.00;;;;;;5032560;28;20223;-71
2023/07/29 04:46:18;;;;;;;17.80;10.27;;;17.10;1.00;;;;;;5032366;28;20185;-72
2023/07/29 04:48:44;;;;;;;11.77;8.73;;;17.10;1.00;;;;;;5033238;28;20433;-72
2023/07/29 04:51:09;;;;;;;10.77;8.57;;;17.10;1.00;;;;;;5033339;28;20207;-72
2023/07/29 04:53:36;;;;;;;10.73;8.30;;;17.00;1.00;;;;;;5032262;28;20266;-74
2023/07/29 04:56:02;;;;;;;11.07;8.60;;;17.10;1.00;;;;;;5014662;28;20168;-72
2023/07/29 04:58:29;;;;;;;14.63;8.13;;;17.10;1.00;;;;;;5013704;28;20431;-71
2023/07/29 05:00:55;;;;;;;9.83;7.90;;;17.10;1.00;;;;;;5014010;28;20403;-72
2023/07/29 05:03:21;;;;;;;11.03;8.37;;;17.10;1.00;;;;;;5012369;28;20438;-70
2023/07/29 05:05:47;;;;;;;14.77;9.23;;;17.10;1.00;;;;;;5012672;28;20880;-69
2023/07/29 05:08:13;;;;;;;12.53;8.37;;;17.20;1.00;;;;;;5025883;28;20449;-74
2023/07/29 05:10:38;;;;;;;11.20;7.90;;;17.20;1.00;;;;;;5032879;28;20171;-70
2023/07/29 05:13:04;;;;;;;11.20;8.93;;;17.20;1.00;;;;;;5013500;28;20234;-71
2023/07/29 05:15:30;;;;;;;10.90;8.50;;;17.30;1.00;;;;;;5012924;28;20195;-69
2023/07/29 05:17:56;;;;;;;11.40;8.43;;;17.30;1.00;;;;;;5021224;28;20203;-68
2023/07/29 05:20:21;;;;;;;16.67;9.33;;;17.30;1.00;;;;;;5032800;28;20194;-72
2023/07/29 05:22:47;;;;;;;12.10;7.93;;;17.40;1.00;;;;;;5032818;28;20522;-71
2023/07/29 05:25:13;;;;;;;10.50;8.47;;;17.40;1.00;;;;;;5031681;28;20253;-70
2023/07/29 05:27:39;;;;;;;13.73;9.17;;;17.50;1.00;;;;;;5033223;28;20270;-71
2023/07/29 05:30:06;;;;;;;11.13;8.77;;;17.50;5.50;;;;;;5033285;28;20167;-71
2023/07/29 05:32:32;;;;;;;8.70;7.60;;;17.50;8.70;;;;;;5031839;28;20254;-70
2023/07/29 05:34:57;;;;;;;10.40;8.60;;;17.50;15.80;;;;;;5033035;28;20501;-68
2023/07/29 05:37:23;;;;;;;10.40;8.10;;;17.50;23.00;;;;;;5030459;28;20336;-71
2023/07/29 05:39:49;;;;;;;9.40;7.87;;;17.60;29.80;;;;;;5025692;28;20184;-72
2023/07/29 05:42:14;;;;;;;8.67;7.60;;;17.60;40.00;;;;;;5012560;28;20663;-69
2023/07/29 05:44:40;;;;;;;8.20;7.20;;;17.60;40.10;;;;;;5013137;28;20219;-68
2023/07/29 05:47:06;;;;;;;7.60;6.83;;;17.70;44.70;;;;;;5012300;28;20188;-70
2023/07/29 05:49:32;;;;;;;7.60;6.70;;;17.60;44.70;;;;;;5013394;28;20259;-71
2023/07/29 05:51:58;;;;;;;8.07;7.27;;;17.70;49.80;;;;;;5013540;28;20160;-68
2023/07/29 05:54:23;;;;;;;7.57;6.83;;;17.70;54.30;;;;;;5032986;28;20409;-73
2023/07/29 05:56:49;;;;;;;8.57;6.50;;;17.80;61.10;;;;;;5031965;28;20226;-71
2023/07/29 05:59:15;;;;;;;7.57;6.63;;;17.80;61.30;;;;;;5032262;28;20190;-73
2023/07/29 06:01:40;;;;;;;11.63;6.77;;;17.80;63.20;;;;;;5032965;28;20202;-70
2023/07/29 06:04:06;;;;;;;6.60;6.00;;;17.90;67.30;;;;;;5035708;28;20358;-70
2023/07/29 06:06:32;;;;;;;7.67;6.30;;;17.80;66.20;;;;;;5034687;28;20221;-67
2023/07/29 06:08:58;;;;;;;7.10;6.40;;;17.80;63.10;;;;;;5036652;28;20213;-70
2023/07/29 06:11:23;;;;;;;7.30;6.57;;;17.80;61.90;;;;;;5036849;28;20160;-72
2023/07/29 06:13:49;;;;;;;6.50;5.90;;;17.90;61.40;;;;;;5035584;28;20172;-68
2023/07/29 06:16:15;;;;;;;5.97;5.30;;;17.90;64.40;;;;;;5035531;28;20243;-69
2023/07/29 06:18:40;;;;;;;6.30;5.70;;;17.90;65.80;;;;;;5023637;28;20226;-66
2023/07/29 06:21:07;;;;;;;7.37;6.30;;;18.00;68.40;;;;;;5036443;28;20249;-68
2023/07/29 06:23:34;;;;;;;5.70;5.20;;;18.10;72.00;;;;;;5036592;28;20183;-66
2023/07/29 06:26:00;;;;;;;6.07;5.47;;;18.00;63.40;;;;;;5035597;28;20420;-67
2023/07/29 06:28:26;;;;;;;6.63;6.13;;;18.10;66.40;;;;;;5035072;28;20433;-69
2023/07/29 06:30:52;;;;;;;6.97;5.77;;;18.20;78.60;;;;;;5036640;28;20410;-67
2023/07/29 06:33:18;;;;;;;7.40;6.23;;;18.30;88.50;;;;;;5034962;28;20513;-69
2023/07/29 06:35:44;;;;;;;7.67;6.53;;;18.30;87.10;;;;;;5035216;28;20528;-68
2023/07/29 06:38:10;;;;;;;6.73;6.13;;;18.50;87.20;;;;;;5036130;28;20426;-67
2023/07/29 06:40:35;;;;;;;9.63;8.50;;;18.50;87.40;;;;;;5036292;28;20251;-66
2023/07/29 06:43:01;;;;;;;11.03;8.90;;;18.60;87.30;;;;;;5035784;28;20694;-68
2023/07/29 06:45:27;;;;;;;11.33;8.80;;;18.70;87.40;;;;;;5034911;28;20218;-67
2023/07/29 06:47:53;;;;;;;11.30;9.87;;;18.70;87.60;;;;;;5035940;28;20652;-66
2023/07/29 06:50:18;;;;;;;15.97;10.90;;;18.80;92.10;;;;;;5036062;28;20428;-67
2023/07/29 06:52:45;;;;;;;11.60;10.40;;;18.80;92.40;;;;;;5032988;28;20249;-67
2023/07/29 06:55:11;;;;;;;12.30;10.90;;;18.70;87.40;;;;;;5034727;28;20179;-69
2023/07/29 06:57:36;;;;;;;12.60;11.40;;;18.80;90.60;;;;;;5035814;28;20537;-67
2023/07/29 07:00:03;;;;;;;11.50;10.10;;;18.80;92.70;;;;;;5035952;28;20531;-67
2023/07/29 07:02:29;;;;;;;16.63;11.47;;;18.80;95.50;;;;;;5021910;28;20183;-67
2023/07/29 07:04:54;;;;;;;15.07;12.57;;;18.80;97.40;;;;;;5034984;28;20954;-70
2023/07/29 07:07:20;;;;;;;14.40;11.90;;;18.90;98.60;;;;;;5034813;28;20195;-68
2023/07/29 07:09:46;;;;;;;14.17;12.10;;;18.80;95.20;;;;;;5035363;28;20163;-69
2023/07/29 07:12:11;;;;;;;15.07;12.70;;;18.80;98.90;;;;;;5035562;28;20164;-67
2023/07/29 07:14:38;;;;;;;14.23;12.40;;;18.90;99.90;;;;;;5034880;28;20175;-67
2023/07/29 07:17:03;;;;;;;13.87;12.47;;;19.00;99.90;;;;;;5033670;28;20702;-70
2023/07/29 07:19:29;;;;;;;14.60;13.00;;;19.10;99.90;;;;;;5050654;28;20458;-67
2023/07/29 07:21:55;;;;;;;15.73;13.30;;;19.20;99.90;;;;;;5035621;28;20176;-67
2023/07/29 07:24:22;;;;;;;15.97;14.00;;;19.30;99.90;;;;;;5029589;28;20297;-66
2023/07/29 07:26:48;;;;;;;15.63;13.40;;;19.30;99.90;;;;;;5026492;28;20194;-67
2023/07/29 07:29:14;;;;;;;15.77;13.13;;;19.30;99.90;;;;;;5022918;28;20934;-68
2023/07/29 07:31:40;;;;;;;17.50;13.10;;;19.30;99.90;;;;;;5016932;28;20465;-67
2023/07/29 07:34:06;;;;;;;15.77;13.27;;;19.40;99.90;;;;;;5033790;28;20410;-69
2023/07/29 07:36:31;;;;;;;17.70;13.27;;;19.40;99.90;;;;;;5033550;28;20174;-69
2023/07/29 07:38:57;;;;;;;17.60;13.60;;;19.40;99.90;;;;;;5034874;28;20183;-70
2023/07/29 07:41:23;;;;;;;16.17;13.17;;;19.40;99.90;;;;;;5016211;28;20181;-69
2023/07/29 07:43:50;;;;;;;16.13;14.00;;;19.40;99.90;;;;;;5014876;28;20188;-69
2023/07/29 07:46:16;;;;;;;14.40;12.90;;;19.40;98.30;;;;;;5014051;28;20415;-69
2023/07/29 07:48:42;;;;;;;13.63;12.23;;;19.40;95.60;;;;;;5028717;28;20450;-71
2023/07/29 07:51:14;;;;;;;17.70;12.90;;;19.50;93.00;;;;;;5019227;28;20259;-71
2023/07/29 07:53:40;;;;;;;14.37;12.07;;;19.50;88.00;;;;;;5015169;28;20161;-69
2023/07/29 07:56:06;;;;;;;15.10;12.47;;;19.60;85.30;;;;;;5028598;28;20437;-71
2023/07/29 07:58:33;;;;;;;12.43;11.13;;;19.70;74.90;;;;;;5034833;28;20488;-70
2023/07/29 08:01:06;;;;;;;13.80;11.83;;;19.70;60.70;;;;;;5035015;28;20410;-70
2023/07/29 08:03:32;;;;;;;12.43;11.13;;;19.80;64.00;;;;;;5034396;28;20413;-70
2023/07/29 08:05:58;;;;;;;11.47;10.30;;;19.90;46.80;;;;;;5033129;28;20410;-69
2023/07/29 08:08:26;;;;;;;10.83;8.90;;;19.90;4.70;;;;;;5034274;28;20450;-72
2023/07/29 08:10:54;;;;;;;12.80;10.67;;;19.90;1.00;;;;;;5034769;28;20410;-69
2023/07/29 08:13:20;;;;;;;12.97;11.67;;;19.90;1.00;;;;;;5034614;28;20537;-68
2023/07/29 08:15:47;;;;;;;11.33;10.20;;;20.00;1.00;;;;;;5033100;28;20406;-72
2023/07/29 08:18:13;;;;;;;10.90;9.70;;;20.00;1.00;;;;;;5032336;28;20434;-72
2023/07/29 08:20:39;;;;;;;13.53;10.70;;;20.10;1.00;;;;;;5014446;28;20975;-72
2023/07/29 08:23:05;;;;;;;12.27;10.60;;;20.00;1.00;;;;;;5034046;28;20186;-70
2023/07/29 08:25:31;;;;;;;10.53;9.47;;;20.00;1.00;;;;;;5032911;28;20286;-68
2023/07/29 08:27:56;;;;;;;13.87;9.27;;;20.10;1.00;;;;;;5033139;28;20664;-70
2023/07/29 08:30:22;;;;;;;10.53;9.00;;;20.10;1.00;;;;;;5034350;28;20406;-71
2023/07/29 08:32:48;;;;;;;12.10;10.80;;;20.20;1.00;;;;;;5034053;28;20170;-71
2023/07/29 08:35:14;;;;;;;12.17;10.87;;;20.20;1.00;;;;;;5032457;28;20203;-70
2023/07/29 08:37:39;;;;;;;9.50;8.50;;;20.30;1.00;;;;;;5032926;28;20253;-69
2023/07/29 08:40:06;;;;;;;10.73;9.63;;;20.40;1.00;;;;;;5033412;28;20175;-69
2023/07/29 08:42:34;;;;;;;9.83;8.80;;;20.50;1.00;;;;;;5033732;28;20532;-74
2023/07/29 08:45:11;;;;;;;9.70;8.80;;;20.70;1.00;;;;;;5033332;28;20446;-71
2023/07/29 08:47:36;;;;;;;9.30;8.40;;;20.70;1.00;;;;;;5033942;28;20768;-72
2023/07/29 08:50:03;;;;;;;10.13;8.77;;;20.70;1.00;;;;;;5033059;28;20475;-72
2023/07/29 08:52:32;;;;;;;10.17;8.90;;;20.80;1.00;;;;;;5033788;28;20167;-72
2023/07/29 08:54:58;;;;;;;9.90;8.90;;;20.80;1.00;;;;;;5033525;28;20926;-71
2023/07/29 08:57:26;;;;;;;10.53;9.57;;;20.90;1.00;;;;;;5032746;28;20423;-69
2023/07/29 08:59:51;;;;;;;10.53;8.60;;;21.10;1.00;;;;;;5033630;28;20882;-71
2023/07/29 09:02:18;;;;;;;11.83;8.93;;;21.20;1.00;;;;;;5033309;28;20415;-70
2023/07/29 09:04:45;;;;;;;11.07;7.70;;;21.20;1.00;;;;;;5032360;28;20236;-71
2023/07/29 09:07:11;;;;;;;8.70;7.77;;;21.30;1.00;;;;;;5014600;28;20474;-69
2023/07/29 09:09:37;;;;;;;9.50;8.40;;;21.30;99.90;;;;;;5033206;28;20419;-69
2023/07/29 09:12:03;;;;;;;12.17;8.80;;;21.30;99.90;;;;;;5033267;28;20484;-74
2023/07/29 09:14:28;;;;;;;10.30;8.03;;;21.40;99.90;;;;;;5032910;28;20183;-70
2023/07/29 09:16:56;;;;;;;10.03;8.30;;;21.50;99.90;;;;;;5031641;28;20545;-70
2023/07/29 09:19:26;;;;;;;10.27;7.37;;;21.50;99.90;;;;;;5033374;28;20186;-72
2023/07/29 09:21:52;;;;;;;8.33;7.20;;;21.50;99.90;;;;;;5032767;28;20463;-71
2023/07/29 09:24:20;;;;;;;8.67;7.07;;;21.50;99.90;;;;;;5031961;28;20458;-69
2023/07/29 09:26:50;;;;;;;8.93;8.13;;;21.70;99.90;;;;;;5032378;28;20199;-69
2023/07/29 09:29:21;;;;;;;8.70;6.50;;;21.70;99.90;;;;;;5033294;28;20464;-72
2023/07/29 09:31:47;;;;;;;10.47;6.40;;;21.70;99.90;;;;;;5032715;28;20755;-71
2023/07/29 09:34:16;;;;;;;7.13;6.43;;;21.90;99.90;;;;;;5033156;28;20421;-67
2023/07/29 09:36:43;;;;;;;6.67;6.07;;;22.00;99.90;;;;;;5032213;28;21016;-73
2023/07/29 09:39:13;;;;;;;9.27;7.50;;;22.20;99.90;;;;;;5031480;28;20438;-70
2023/07/29 09:41:38;;;;;;;6.57;5.93;;;22.50;99.90;;;;;;5032955;28;20418;-71
2023/07/29 09:44:05;;;;;;;6.00;5.43;;;22.60;99.90;;;;;;5031914;28;20454;-67
2023/07/29 09:46:37;;;;;;;5.50;5.00;;;22.60;99.90;;;;;;5032076;28;20183;-71
2023/07/29 09:49:06;;;;;;;5.70;5.20;;;22.40;98.10;;;;;;5032549;28;20501;-70
2023/07/29 09:51:31;;;;;;;6.10;5.60;;;22.30;96.50;;;;;;5032302;28;20434;-68
2023/07/29 09:53:58;;;;;;;6.00;5.40;;;22.20;96.50;;;;;;5031497;28;20948;-66
2023/07/29 09:56:27;;;;;;;5.60;5.10;;;22.10;96.50;;;;;;5031463;28;20252;-70
2023/07/29 09:58:57;;;;;;;6.30;5.50;;;22.30;96.60;;;;;;5032835;28;20972;-69
2023/07/29 10:01:23;;;;;;;8.53;5.67;;;22.40;96.60;;;;;;5032806;28;20406;-67
2023/07/29 10:03:49;;;;;;;6.30;5.47;;;22.60;96.70;;;;;;5032753;28;20446;-70
2023/07/29 10:06:15;;;;;;;6.00;5.50;;;23.10;86.00;;;;;;5031321;28;20434;-73
2023/07/29 10:08:43;;;;;;;6.70;6.10;;;23.40;51.80;;;;;;5032289;28;20452;-73
2023/07/29 10:11:10;;;;;;;5.90;5.40;;;23.60;12.40;;;;;;5032749;28;20480;-68
2023/07/29 10:13:37;;;;;;;5.40;4.90;;;23.70;1.00;;;;;;5032567;28;20407;-73
2023/07/29 10:16:04;;;;;;;4.60;4.30;;;23.80;3.20;;;;;;5015370;28;20419;-73
2023/07/29 10:18:31;;;;;;;7.10;4.10;;;23.60;1.00;;;;;;5012723;28;20463;-74
2023/07/29 10:20:59;;;;;;;4.70;4.07;;;23.20;1.00;;;;;;5012508;28;20462;-69
2023/07/29 10:23:27;;;;;;;5.20;4.70;;;22.90;1.00;;;;;;5012529;28;20498;-70
2023/07/29 10:26:09;;;;;;;6.33;4.80;;;22.80;1.00;;;;;;5011809;28;20407;-71
2023/07/29 10:28:40;;;;;;;5.03;4.33;;;22.90;1.00;;;;;;5012540;28;20431;-69
2023/07/29 10:31:06;;;;;;;5.87;5.37;;;22.90;1.00;;;;;;5011503;28;20465;-70
2023/07/29 10:33:33;;;;;;;4.77;4.37;;;22.80;1.00;;;;;;5012371;28;20391;-76
2023/07/29 10:35:59;;;;;;;9.90;3.90;;;23.20;1.00;;;;;;5011250;28;20827;-72
2023/07/29 10:38:26;;;;;;;4.90;4.50;;;23.70;1.00;;;;;;5012485;28;20418;-74
2023/07/29 10:40:56;;;;;;;4.10;3.77;;;24.20;1.00;;;;;;5012704;28;20438;-72
2023/07/29 10:43:35;;;;;;;3.80;3.50;;;24.10;1.00;;;;;;5029023;28;20452;-69
2023/07/29 10:46:19;;;;;;;4.20;3.90;;;24.50;1.00;;;;;;5031195;28;20464;-70
2023/07/29 10:48:50;;;;;;;4.83;3.90;;;24.80;1.00;;;;;;5031349;28;20434;-72
2023/07/29 10:51:29;;;;;;;4.13;3.63;;;25.00;1.00;;;;;;5035070;28;20402;-72
2023/07/29 10:53:57;;;;;;;3.97;3.57;;;25.00;1.00;;;;;;5036235;28;20827;-69
2023/07/29 10:56:29;;;;;;;3.47;3.27;;;24.80;1.00;;;;;;5035023;28;20481;-71
2023/07/29 10:58:57;;;;;;;4.47;3.60;;;24.80;1.00;;;;;;5035868;28;20456;-73
2023/07/29 11:01:33;;;;;;;2.70;2.50;;;25.00;1.00;;;;;;5035997;28;20452;-71
2023/07/29 11:04:24;;;;;;;2.93;2.57;;;25.50;1.00;;;;;;5035426;28;20833;-70
2023/07/29 11:07:28;;;;;;;3.30;3.00;;;26.00;1.00;;;;;;5034477;28;20836;-74
2023/07/29 11:10:02;;;;;;;2.70;2.50;;;26.50;1.00;;;;;;5024758;28;20412;-71
2023/07/29 11:12:42;;;;;;;2.30;2.20;;;26.90;1.00;;;;;;5035445;28;20747;-72
2023/07/29 11:15:11;;;;;;;2.33;2.13;;;27.20;1.00;;;;;;5033339;28;20430;-77
2023/07/29 11:17:43;;;;;;;1.97;1.87;;;26.90;1.00;;;;;;5035492;28;21034;-72
2023/07/29 11:20:09;;;;;;;2.90;2.27;;;26.30;1.00;;;;;;5035342;28;20402;-71
2023/07/29 11:22:36;;;;;;;2.70;2.50;;;25.90;1.00;;;;;;5034320;28;20422;-70
2023/07/29 11:25:02;;;;;;;3.33;2.37;;;25.60;1.00;;;;;;5034752;28;20515;-74
2023/07/29 11:27:28;;;;;;;2.70;2.50;;;25.40;1.00;;;;;;5035392;28;20464;-70
2023/07/29 11:30:01;;;;;;;2.73;2.40;;;25.30;1.00;;;;;;5032575;28;20492;-73
2023/07/29 11:32:27;;;;;;;2.57;2.37;;;25.10;1.00;;;;;;5035421;28;20524;-71
2023/07/29 11:34:53;;;;;;;2.70;2.60;;;24.90;1.00;;;;;;5034994;28;20406;-69
2023/07/29 11:37:20;;;;;;;2.43;2.23;;;24.80;1.00;;;;;;5034178;28;20271;-71
2023/07/29 11:39:46;;;;;;;2.63;2.40;;;24.70;1.00;;;;;;5035345;28;20192;-72
2023/07/29 11:42:13;;;;;;;2.87;2.10;;;24.70;1.00;;;;;;5035439;28;20402;-72
2023/07/29 11:44:39;;;;;;;4.37;2.07;;;25.00;1.00;;;;;;5033951;28;20503;-72
2023/07/29 11:47:12;;;;;;;3.03;2.40;;;25.80;1.00;;;;;;5033729;28;20430;-73
2023/07/29 11:49:41;;;;;;;2.50;2.30;;;26.80;1.00;;;;;;5035046;28;20171;-73
2023/07/29 11:52:10;;;;;;;1.97;1.87;;;27.50;1.00;;;;;;5034984;28;20473;-73
2023/07/29 11:54:39;;;;;;;2.00;1.90;;;27.70;1.00;;;;;;5034763;28;20414;-70
2023/07/29 11:57:09;;;;;;;2.30;2.10;;;27.10;99.90;;;;;;5033581;28;20458;-73
2023/07/29 11:59:36;;;;;;;2.17;1.83;;;26.90;99.90;;;;;;5034281;28;20426;-70
2023/07/29 12:02:07;;;;;;;1.70;1.60;;;27.00;99.90;;;;;;5034713;28;20744;-73
2023/07/29 12:04:34;;;;;;;3.50;1.77;;;26.40;99.90;;;;;;5034332;28;20532;-73
2023/07/29 12:07:00;;;;;;;1.40;1.30;;;25.70;99.90;;;;;;5033863;28;20787;-70
2023/07/29 12:09:27;;;;;;;2.20;2.10;;;25.40;99.90;;;;;;5018578;28;20407;-72
2023/07/29 12:11:53;;;;;;;2.13;1.47;;;25.60;99.90;;;;;;5020832;28;20432;-73
2023/07/29 12:14:19;;;;;;;2.97;2.00;;;25.80;99.90;;;;;;5030984;28;20416;-71
2023/07/29 12:16:48;;;;;;;4.00;1.87;;;25.30;99.90;;;;;;5014066;28;20462;-72
2023/07/29 12:19:15;;;;;;;2.93;2.17;;;25.00;99.90;;;;;;5033390;28;20245;-67
2023/07/29 12:21:44;;;;;;;2.30;2.20;;;25.00;99.90;;;;;;5034158;28;20469;-67
2023/07/29 12:24:13;;;;;;;1.83;1.63;;;25.90;99.90;;;;;;5033949;28;20446;-67
2023/07/29 12:26:41;;;;;;;2.90;1.80;;;27.10;99.90;;;;;;5033416;28;20429;-67
2023/07/29 12:29:19;;;;;;;2.13;1.93;;;28.00;99.90;;;;;;5034384;28;20403;-72
2023/07/29 12:31:46;;;;;;;7.03;1.60;;;28.20;99.90;;;;;;5033115;28;20426;-67
2023/07/29 12:34:21;;;;;;;3.77;1.40;;;27.70;99.90;;;;;;5034010;28;20782;-67
2023/07/29 12:36:48;;;;;;;1.60;1.50;;;27.50;99.90;;;;;;5033139;28;20436;-72
2023/07/29 12:39:23;;;;;;;2.40;1.67;;;26.80;99.90;;;;;;5027521;28;20514;-71
2023/07/29 12:41:50;;;;;;;2.00;1.80;;;26.40;99.90;;;;;;5027115;28;20405;-70
2023/07/29 12:44:16;;;;;;;2.00;1.90;;;25.90;99.90;;;;;;5030800;28;20449;-69
2023/07/29 12:46:42;;;;;;;1.77;1.67;;;26.20;99.90;;;;;;5032978;28;20472;-69